Time;durP1;ratioP1;P1;durP2;ratioP2;P2;SDS_P1;SDS_P2;PMS_P1;PMS_P2;Temp;Humidity;BMP_temperature;BMP_pressure;BME280_temperature;BME280_humidity;BME280_pressure;Samples;Min_cycle;Max_cycle;Signal;HPM_P1;HPM_P2
2022/07/11 00:01:42;;;;;;;;;3.25;3.00;;;;;25.42;52.80;101980.66;5095284;27;45249;-89
2022/07/11 00:04:08;;;;;;;;;3.50;3.00;;;;;25.32;52.81;101974.41;5076535;28;45291;-88
2022/07/11 00:06:33;;;;;;;;;4.50;4.50;;;;;25.29;53.25;101967.34;5076838;28;45608;-89
2022/07/11 00:08:59;;;;;;;;;4.75;4.00;;;;;25.30;53.53;101966.44;5076509;28;46666;-89
2022/07/11 00:11:25;;;;;;;;;3.25;3.25;;;;;25.24;53.26;101962.91;5081825;28;44707;-88
2022/07/11 00:13:50;;;;;;;;;3.00;3.00;;;;;25.23;53.80;101969.09;5084346;27;45346;-88
2022/07/11 00:16:16;;;;;;;;;3.75;3.75;;;;;25.16;53.53;101969.03;5081704;28;45417;-88
2022/07/11 00:18:42;;;;;;;;;3.00;3.00;;;;;25.15;54.06;101972.59;5079678;27;45527;-88
2022/07/11 00:21:08;;;;;;;;;3.00;3.00;;;;;25.14;53.72;101983.19;5078525;28;45807;-88
2022/07/11 00:23:33;;;;;;;;;3.50;3.00;;;;;25.04;54.08;101969.03;5077919;28;45449;-88
2022/07/11 00:25:59;;;;;;;;;4.00;3.00;;;;;25.01;54.02;101964.59;5076464;28;45303;-89
2022/07/11 00:28:25;;;;;;;;;3.00;3.00;;;;;24.99;53.65;101969.03;5082584;28;47022;-89
2022/07/11 00:30:52;;;;;;;;;3.00;3.00;;;;;24.98;54.11;101979.59;5084818;28;45271;-89
2022/07/11 00:33:18;;;;;;;;;3.75;3.25;;;;;24.87;54.38;101967.19;5084582;28;45269;-87
2022/07/11 00:35:44;;;;;;;;;3.25;3.25;;;;;24.83;54.26;101957.50;5086503;27;45421;-89
2022/07/11 00:38:09;;;;;;;;;4.00;4.00;;;;;24.83;54.88;101962.78;5081115;27;45357;-83
2022/07/11 00:40:35;;;;;;;;;4.25;3.00;;;;;24.83;55.15;101965.44;5076240;27;45476;-84
2022/07/11 00:43:03;;;;;;;;;3.00;3.00;;;;;24.80;55.07;101959.22;5075879;27;45325;-84
2022/07/11 00:45:29;;;;;;;;;4.50;4.50;;;;;24.81;55.07;101950.41;5076409;27;45516;-84
2022/07/11 00:47:55;;;;;;;;;4.25;3.00;;;;;24.85;54.98;101962.78;5076131;27;45219;-84
2022/07/11 00:50:21;;;;;;;;;2.25;2.25;;;;;24.85;54.40;101957.50;5075570;27;45341;-84
2022/07/11 00:52:47;;;;;;;;;4.25;2.50;;;;;24.89;55.30;101959.25;5076077;27;45177;-84
2022/07/11 00:55:13;;;;;;;;;2.50;2.50;;;;;24.87;55.07;101963.69;5076657;28;45457;-83
2022/07/11 00:57:39;;;;;;;;;3.00;3.00;;;;;24.85;54.71;101955.72;5078073;28;45464;-83
2022/07/11 01:00:06;;;;;;;;;4.25;2.25;;;;;24.85;54.65;101958.38;5077846;28;45352;-84
2022/07/11 01:02:32;;;;;;;;;3.00;3.00;;;;;24.82;54.93;101952.19;5079227;27;45800;-83
2022/07/11 01:04:58;;;;;;;;;3.75;3.00;;;;;24.81;54.82;101956.59;5079114;27;45336;-84
2022/07/11 01:07:23;;;;;;;;;2.00;2.00;;;;;24.76;55.52;101958.34;5079144;27;45611;-84
2022/07/11 01:09:50;;;;;;;;;3.75;2.75;;;;;24.73;55.44;101959.22;5077753;28;45271;-83
2022/07/11 01:12:17;;;;;;;;;4.00;4.00;;;;;24.72;55.82;101956.56;5078785;27;45401;-83
2022/07/11 01:14:52;;;;;;;;;2.00;2.00;;;;;24.61;55.78;101945.00;5079327;28;45481;-83
2022/07/11 01:17:19;;;;;;;;;3.25;2.25;;;;;24.64;56.52;101958.25;5078953;28;45376;-84
2022/07/11 01:19:44;;;;;;;;;2.00;2.00;;;;;24.62;56.01;101946.78;5083142;27;45738;-84
2022/07/11 01:22:13;;;;;;;;;4.00;2.75;;;;;24.63;55.74;101953.81;5087442;27;45292;-84
2022/07/11 01:24:39;;;;;;;;;3.00;3.00;;;;;24.62;56.47;101946.78;5086079;27;45329;-84
2022/07/11 01:27:05;;;;;;;;;2.00;2.00;;;;;24.60;56.21;101944.09;5081707;27;45174;-83
2022/07/11 01:29:31;;;;;;;;;2.50;2.50;;;;;24.61;55.65;101953.81;5080964;28;45215;-84
2022/07/11 01:31:56;;;;;;;;;3.50;3.50;;;;;24.49;56.01;101941.44;5080075;28;45371;-83
2022/07/11 01:34:22;;;;;;;;;2.00;2.00;;;;;24.44;56.58;101943.16;5079952;27;45247;-83
2022/07/11 01:36:47;;;;;;;;;2.25;2.25;;;;;24.48;56.85;101949.34;5081207;27;46120;-83
2022/07/11 01:39:13;;;;;;;;;4.00;3.00;;;;;24.46;56.17;101949.34;5078725;28;45337;-84
2022/07/11 01:41:39;;;;;;;;;2.25;2.25;;;;;24.45;56.35;101955.50;5078660;27;45338;-84
2022/07/11 01:44:04;;;;;;;;;2.25;2.25;;;;;24.38;56.31;101941.34;5077339;28;45477;-84
2022/07/11 01:46:30;;;;;;;;;2.00;2.00;;;;;24.34;56.93;101942.25;5078322;27;46148;-84
2022/07/11 01:48:55;;;;;;;;;3.00;2.00;;;;;24.35;57.71;101945.75;5077351;28;45369;-83
2022/07/11 01:51:23;;;;;;;;;2.00;2.00;;;;;24.35;57.28;101953.69;5079121;27;45338;-84
2022/07/11 01:53:48;;;;;;;;;3.00;3.00;;;;;24.30;57.47;101943.09;5079543;27;45426;-85
2022/07/11 01:56:14;;;;;;;;;2.75;2.75;;;;;24.25;57.38;101944.81;5078118;28;45554;-83
2022/07/11 01:58:40;;;;;;;;;5.50;3.00;;;;;24.25;57.32;101948.34;5078441;27;45309;-83
2022/07/11 02:01:05;;;;;;;;;4.25;2.75;;;;;24.22;57.92;101947.44;5077970;27;45336;-83
2022/07/11 02:03:31;;;;;;;;;2.00;1.00;;;;;24.15;57.78;101942.97;5078462;27;45521;-84
2022/07/11 02:05:57;;;;;;;;;2.00;2.00;;;;;23.98;58.46;101925.25;5077844;27;45444;-83
2022/07/11 02:08:22;;;;;;;;;2.75;2.50;;;;;24.08;58.02;101948.25;5077884;28;45204;-83
2022/07/11 02:10:50;;;;;;;;;2.00;1.25;;;;;24.06;58.01;101944.69;5078184;27;45306;-84
2022/07/11 02:13:18;;;;;;;;;4.00;3.25;;;;;24.08;59.16;101953.53;5085495;27;45441;-83
2022/07/11 02:15:44;;;;;;;;;1.50;1.50;;;;;24.02;58.96;101948.22;5086964;28;46720;-84
2022/07/11 02:18:11;;;;;;;;;3.00;3.00;;;;;24.03;58.33;101957.03;5080338;27;45314;-83
2022/07/11 02:20:42;;;;;;;;;2.50;2.50;;;;;23.97;58.51;101957.84;5078871;27;45365;-84
2022/07/11 02:23:08;;;;;;;;;3.75;3.00;;;;;23.92;58.84;101947.22;5078814;28;45329;-85
2022/07/11 02:25:38;;;;;;;;;3.00;3.00;;;;;23.89;59.46;101946.31;5078135;27;46261;-84
2022/07/11 02:28:08;;;;;;;;;3.00;3.00;;;;;23.85;59.87;101944.50;5077695;27;45662;-83
2022/07/11 02:30:34;;;;;;;;;3.00;2.75;;;;;23.85;59.41;101944.50;5076515;28;45433;-84
2022/07/11 02:33:00;;;;;;;;;3.00;3.00;;;;;23.78;59.84;101941.81;5078147;27;45317;-84
2022/07/11 02:35:27;;;;;;;;;3.00;3.00;;;;;23.78;59.96;101946.22;5078348;27;45358;-84
2022/07/11 02:37:53;;;;;;;;;3.00;3.00;;;;;23.69;59.43;101933.81;5078354;27;45197;-84
2022/07/11 02:40:18;;;;;;;;;5.25;3.75;;;;;23.69;60.36;101941.75;5081386;27;45241;-84
2022/07/11 02:42:45;;;;;;;;;2.25;2.25;;;;;23.69;60.45;101944.41;5080253;28;45010;-84
2022/07/11 02:45:11;;;;;;;;;2.00;2.00;;;;;23.71;60.97;101947.03;5077570;27;45421;-84
2022/07/11 02:47:38;;;;;;;;;4.00;3.00;;;;;23.67;60.67;101938.22;5078749;27;46028;-84
2022/07/11 02:50:06;;;;;;;;;3.25;3.25;;;;;23.68;60.31;101939.97;5077375;27;45375;-85
2022/07/11 02:52:31;;;;;;;;;3.25;3.25;;;;;23.68;60.41;101941.72;5076555;28;45276;-84
2022/07/11 02:54:57;;;;;;;;;3.00;2.00;;;;;23.64;61.22;101943.47;5076910;27;45199;-85
2022/07/11 02:57:22;;;;;;;;;3.00;3.00;;;;;23.59;61.39;101931.97;5077658;28;45345;-84
2022/07/11 02:59:48;;;;;;;;;4.75;4.25;;;;;23.64;61.77;101946.09;5078349;28;45245;-83
2022/07/11 03:02:13;;;;;;;;;3.00;3.00;;;;;23.62;60.92;101937.25;5079201;27;45253;-85
2022/07/11 03:04:39;;;;;;;;;5.25;3.50;;;;;23.55;62.00;101927.53;5082545;28;47614;-84
2022/07/11 03:07:05;;;;;;;;;5.75;4.25;;;;;23.54;61.27;101926.63;5086477;27;44708;-85
2022/07/11 03:09:30;;;;;;;;;5.00;4.00;;;;;23.57;61.73;101931.06;5081164;27;45303;-82
2022/07/11 03:11:56;;;;;;;;;4.25;4.25;;;;;23.48;62.09;101914.25;5078992;27;45540;-83
2022/07/11 03:14:22;;;;;;;;;5.00;4.00;;;;;23.52;62.86;101927.50;5077909;27;45389;-84
2022/07/11 03:16:47;;;;;;;;;4.00;4.00;;;;;23.52;62.27;101925.75;5076936;27;45408;-85
2022/07/11 03:19:13;;;;;;;;;6.00;5.00;;;;;23.54;62.58;101929.25;5075903;27;45422;-85
2022/07/11 03:21:38;;;;;;;;;3.25;3.25;;;;;23.52;62.34;101941.59;5077216;27;45362;-84
2022/07/11 03:24:04;;;;;;;;;3.00;3.00;;;;;23.46;62.32;101931.88;5076522;27;45404;-85
2022/07/11 03:26:30;;;;;;;;;3.25;3.00;;;;;23.47;62.18;101927.44;5075986;28;45176;-86
2022/07/11 03:28:56;;;;;;;;;3.00;2.00;;;;;23.46;62.45;101934.50;5082122;27;45226;-90
2022/07/11 03:31:21;;;;;;;;;3.00;3.00;;;;;23.44;62.40;101932.69;5080000;28;45412;-90
2022/07/11 03:33:47;;;;;;;;;3.00;3.00;;;;;23.47;62.99;101944.22;5079224;28;45317;-92
2022/07/11 03:36:12;;;;;;;;;3.00;2.25;;;;;23.31;62.40;101922.03;5077977;28;45241;-86
2022/07/11 03:38:38;;;;;;;;;3.00;3.00;;;;;23.43;62.89;101942.41;5078495;27;45426;-89
2022/07/11 03:41:04;;;;;;;;;3.75;3.75;;;;;23.41;62.30;101933.56;5079136;28;45511;-88
2022/07/11 03:43:30;;;;;;;;;4.00;3.00;;;;;23.34;62.80;101932.63;5081557;27;46213;-90
2022/07/11 03:45:56;;;;;;;;;3.50;3.00;;;;;23.38;62.42;101944.09;5080939;27;45345;-89
2022/07/11 03:48:22;;;;;;;;;3.00;3.00;;;;;23.33;63.20;101936.13;5096592;27;45330;-89
2022/07/11 03:50:48;;;;;;;;;2.00;1.00;;;;;23.31;63.10;101940.53;5079239;27;45314;-90
2022/07/11 03:53:14;;;;;;;;;4.75;3.75;;;;;23.23;63.13;101928.97;5078400;27;45330;-89
2022/07/11 03:55:40;;;;;;;;;2.75;2.75;;;;;23.26;63.47;101941.34;5082717;27;45270;-90
2022/07/11 03:58:06;;;;;;;;;3.75;3.75;;;;;23.24;63.29;101935.16;5086235;28;45247;-85
2022/07/11 04:00:32;;;;;;;;;4.00;2.75;;;;;23.20;63.93;101934.25;5085817;27;45675;-86
2022/07/11 04:02:57;;;;;;;;;5.00;3.00;;;;;23.18;63.77;101938.59;5082033;27;45282;-86
2022/07/11 04:05:23;;;;;;;;;2.00;2.00;;;;;23.18;64.17;101935.97;5080851;27;45151;-86
2022/07/11 04:07:49;;;;;;;;;3.25;3.25;;;;;23.17;63.59;101935.06;5078577;28;45223;-89
2022/07/11 04:10:17;;;;;;;;;3.00;3.00;;;;;23.10;64.13;101935.88;5077462;27;45573;-86
2022/07/11 04:12:43;;;;;;;;;2.75;2.75;;;;;23.09;63.80;101931.44;5075318;28;46631;-87
2022/07/11 04:15:10;;;;;;;;;4.00;3.25;;;;;23.11;64.47;101927.06;5077289;28;45384;-87
2022/07/11 04:17:36;;;;;;;;;2.50;2.50;;;;;23.13;64.83;101937.66;5077285;28;45310;-86
2022/07/11 04:20:03;;;;;;;;;3.50;3.00;;;;;23.12;64.14;101935.88;5077414;27;45371;-86
2022/07/11 04:22:28;;;;;;;;;2.00;2.00;;;;;23.12;63.92;101944.69;5077508;27;46337;-86
2022/07/11 04:24:54;;;;;;;;;3.00;3.00;;;;;23.09;64.94;101942.03;5078600;27;45304;-86
2022/07/11 04:27:19;;;;;;;;;3.00;3.00;;;;;23.04;64.34;101943.75;5077469;28;45416;-85
2022/07/11 04:29:45;;;;;;;;;2.25;2.25;;;;;23.02;64.79;101948.13;5076637;27;45317;-84
2022/07/11 04:32:11;;;;;;;;;3.75;3.75;;;;;23.05;64.84;101958.72;5077483;28;46993;-84
2022/07/11 04:34:36;;;;;;;;;3.00;3.00;;;;;23.01;64.72;101948.97;5079593;28;45566;-84
2022/07/11 04:37:03;;;;;;;;;4.00;4.00;;;;;23.01;64.65;101964.81;5079374;27;45390;-84
2022/07/11 04:39:28;;;;;;;;;4.00;4.00;;;;;22.97;64.24;101950.69;5079896;27;45429;-84
2022/07/11 04:41:54;;;;;;;;;3.50;3.25;;;;;22.99;64.99;101966.56;5079802;27;46334;-84
2022/07/11 04:44:20;;;;;;;;;4.75;4.50;;;;;22.99;65.61;101956.00;5079093;27;45307;-85
2022/07/11 04:46:45;;;;;;;;;4.50;3.25;;;;;23.00;65.22;101958.63;5084921;28;45285;-84
2022/07/11 04:49:12;;;;;;;;;6.00;5.00;;;;;23.00;65.38;101963.91;5087894;27;45630;-85
2022/07/11 04:51:38;;;;;;;;;5.00;5.00;;;;;23.00;65.60;101965.69;5081423;28;45493;-84
2022/07/11 04:54:03;;;;;;;;;7.00;6.00;;;;;23.02;65.59;101963.97;5080030;28;45242;-84
2022/07/11 04:56:30;;;;;;;;;6.00;4.00;;;;;23.04;65.40;101972.78;5080281;27;45245;-84
2022/07/11 04:58:56;;;;;;;;;4.25;3.25;;;;;23.03;65.20;101961.31;5079984;28;45380;-84
2022/07/11 05:01:25;;;;;;;;;4.75;4.00;;;;;23.02;65.50;101961.31;5079985;27;45470;-85
2022/07/11 05:03:52;;;;;;;;;6.00;6.00;;;;;23.05;65.69;101964.00;5079639;27;45348;-84
2022/07/11 05:06:19;;;;;;;;;5.00;5.00;;;;;23.02;65.19;101975.41;5078807;28;45248;-84
2022/07/11 05:08:45;;;;;;;;;6.00;4.00;;;;;22.91;65.46;101969.09;5080545;27;45493;-84
2022/07/11 05:11:11;;;;;;;;;6.25;4.50;;;;;22.93;65.81;101972.66;5077544;28;45456;-85
2022/07/11 05:13:37;;;;;;;;;5.25;5.25;;;;;22.98;66.23;101972.69;5079066;28;45513;-85
2022/07/11 05:16:03;;;;;;;;;2.75;2.75;;;;;22.99;65.82;101971.84;5078591;27;45318;-85
2022/07/11 05:18:29;;;;;;;;;4.00;4.00;;;;;23.01;65.82;101976.25;5079562;27;45440;-85
2022/07/11 05:20:55;;;;;;;;;4.75;4.75;;;;;23.01;65.61;101978.03;5079260;28;45873;-84
2022/07/11 05:23:20;;;;;;;;;4.25;4.00;;;;;23.07;65.61;101982.50;5079027;27;45219;-85
2022/07/11 05:25:46;;;;;;;;;5.00;3.25;;;;;23.06;66.14;101978.09;5079240;27;45326;-85
2022/07/11 05:28:11;;;;;;;;;2.25;2.25;;;;;23.03;65.94;101977.19;5079187;28;45221;-84
2022/07/11 05:30:37;;;;;;;;;6.00;6.00;;;;;23.11;66.17;101993.13;5076835;28;45330;-84
2022/07/11 05:33:02;;;;;;;;;4.00;4.00;;;;;23.08;65.66;101979.88;5079486;28;45264;-85
2022/07/11 05:35:28;;;;;;;;;7.00;4.00;;;;;23.14;66.30;101986.97;5079518;27;45257;-84
2022/07/11 05:37:54;;;;;;;;;5.00;5.00;;;;;23.15;66.35;101991.41;5084172;27;45301;-86
2022/07/11 05:40:20;;;;;;;;;5.25;4.00;;;;;23.15;66.45;101979.09;5087184;27;46291;-83
2022/07/11 05:42:45;;;;;;;;;5.50;4.00;;;;;23.21;66.36;101990.63;5082213;27;45352;-82
2022/07/11 05:45:11;;;;;;;;;3.00;3.00;;;;;23.19;66.15;101982.69;5079831;28;45264;-85
2022/07/11 05:47:37;;;;;;;;;5.00;4.00;;;;;23.24;66.10;101990.66;5080698;27;45467;-85
2022/07/11 05:50:03;;;;;;;;;3.75;3.75;;;;;23.24;65.71;101982.72;5079294;27;45322;-84
2022/07/11 05:52:29;;;;;;;;;6.00;4.50;;;;;23.26;65.75;101981.00;5077537;27;45867;-85
2022/07/11 05:54:55;;;;;;;;;5.50;3.00;;;;;23.25;65.68;101979.22;5077070;28;45410;-86
2022/07/11 05:57:20;;;;;;;;;2.75;2.75;;;;;23.27;66.25;101981.00;5079211;27;45211;-86
2022/07/11 05:59:46;;;;;;;;;5.00;5.00;;;;;23.26;65.80;101971.28;5078518;27;46224;-86
2022/07/11 06:02:12;;;;;;;;;4.00;4.00;;;;;23.29;66.15;101975.72;5078380;27;45206;-86
2022/07/11 06:04:38;;;;;;;;;4.75;4.00;;;;;23.23;66.17;101955.41;5078365;27;45290;-87
2022/07/11 06:07:04;;;;;;;;;4.75;3.25;;;;;23.37;65.53;101978.44;5078237;27;45208;-86
2022/07/11 06:09:30;;;;;;;;;2.25;2.25;;;;;23.44;66.26;101989.09;5076748;28;46349;-80
2022/07/11 06:11:55;;;;;;;;;4.25;4.25;;;;;23.47;65.69;101983.84;5076626;27;45382;-83
2022/07/11 06:14:21;;;;;;;;;5.00;5.00;;;;;23.48;65.86;101982.09;5076303;27;45423;-81
2022/07/11 06:16:47;;;;;;;;;3.00;3.00;;;;;23.48;65.46;101985.63;5075778;27;45547;-82
2022/07/11 06:19:14;;;;;;;;;6.00;4.00;;;;;23.47;66.38;101991.78;5073563;28;47483;-83
2022/07/11 06:21:40;;;;;;;;;7.00;6.25;;;;;23.44;65.86;101982.91;5077750;27;45349;-83
2022/07/11 06:24:06;;;;;;;;;8.25;6.00;;;;;23.49;66.07;101994.44;5077265;27;45314;-82
2022/07/11 06:26:31;;;;;;;;;6.00;5.75;;;;;23.47;66.42;101983.84;5077857;27;45566;-82
2022/07/11 06:28:57;;;;;;;;;3.75;3.75;;;;;23.56;66.33;101996.25;5082381;28;46305;-82
2022/07/11 06:31:23;;;;;;;;;6.00;4.50;;;;;23.53;66.40;101979.47;5084954;28;45262;-82
2022/07/11 06:33:54;;;;;;;;;5.50;5.50;;;;;23.62;66.12;101987.50;5079009;28;45300;-82
2022/07/11 06:36:23;;;;;;;;;6.25;4.50;;;;;23.59;66.08;101985.72;5077808;28;45455;-82
2022/07/11 06:38:50;;;;;;;;;5.00;4.00;;;;;23.67;66.33;101987.53;5077505;28;46162;-82
2022/07/11 06:41:16;;;;;;;;;4.25;4.25;;;;;23.72;66.35;101985.84;5077085;27;45735;-82
2022/07/11 06:43:41;;;;;;;;;5.00;5.00;;;;;23.73;66.54;101977.03;5077247;27;45798;-82
2022/07/11 06:46:07;;;;;;;;;4.00;3.50;;;;;23.75;65.71;101980.59;5077297;27;45468;-82
2022/07/11 06:48:32;;;;;;;;;5.00;3.00;;;;;23.78;66.38;101980.59;5077209;27;45478;-83
2022/07/11 06:50:58;;;;;;;;;5.00;4.00;;;;;23.77;65.84;101976.16;5078343;27;45402;-83
2022/07/11 06:53:24;;;;;;;;;4.00;4.00;;;;;23.78;66.43;101977.94;5076087;28;45313;-83
2022/07/11 06:55:49;;;;;;;;;4.25;4.25;;;;;23.83;66.23;101981.53;5077344;27;45635;-81
2022/07/11 06:58:31;;;;;;;;;3.50;3.50;;;;;23.86;66.21;101978.00;5076587;28;45466;-82
2022/07/11 07:00:57;;;;;;;;;6.00;6.00;;;;;23.88;66.06;101976.28;5075411;28;45414;-82
2022/07/11 07:03:23;;;;;;;;;6.25;5.00;;;;;23.97;65.71;101975.50;5077424;27;45401;-82
2022/07/11 07:05:49;;;;;;;;;4.50;4.00;;;;;23.98;65.47;101974.59;5077250;28;45330;-82
2022/07/11 07:08:14;;;;;;;;;5.25;5.25;;;;;24.02;65.49;101981.69;5076404;27;46124;-82
2022/07/11 07:10:40;;;;;;;;;5.00;4.00;;;;;24.01;65.38;101975.53;5077288;27;45428;-82
2022/07/11 07:13:06;;;;;;;;;5.50;4.00;;;;;24.13;65.42;101984.44;5078338;27;45346;-82
2022/07/11 07:15:31;;;;;;;;;5.75;5.75;;;;;24.14;64.93;101986.19;5077227;28;45346;-82
2022/07/11 07:17:57;;;;;;;;;5.00;5.00;;;;;24.14;64.68;101980.88;5076529;28;46084;-82
2022/07/11 07:20:22;;;;;;;;;5.00;3.75;;;;;24.20;64.84;101991.53;5084572;28;45234;-82
2022/07/11 07:22:48;;;;;;;;;4.00;4.00;;;;;24.22;64.50;101985.38;5082446;28;45321;-82
2022/07/11 07:25:13;;;;;;;;;4.25;3.00;;;;;24.24;64.67;101983.63;5079155;28;45650;-82
2022/07/11 07:27:39;;;;;;;;;4.00;4.00;;;;;24.26;64.56;101979.22;5079506;27;45356;-83
2022/07/11 07:30:05;;;;;;;;;4.00;4.00;;;;;24.32;64.10;101988.06;5076258;28;45210;-82
2022/07/11 07:32:32;;;;;;;;;3.75;3.00;;;;;24.33;63.62;101984.56;5076589;27;45401;-82
2022/07/11 07:34:58;;;;;;;;;3.00;3.00;;;;;24.41;63.77;101996.97;5076717;27;45421;-82
2022/07/11 07:37:24;;;;;;;;;4.25;4.00;;;;;24.39;63.25;101981.97;5076308;28;46174;-82
2022/07/11 07:39:50;;;;;;;;;3.00;3.00;;;;;24.47;63.50;101988.19;5074989;28;45422;-82
2022/07/11 07:42:15;;;;;;;;;4.50;3.25;;;;;24.49;62.90;101988.19;5074873;28;45248;-82
2022/07/11 07:44:41;;;;;;;;;2.75;2.75;;;;;24.50;63.04;101990.84;5077070;27;45278;-83
2022/07/11 07:47:07;;;;;;;;;3.75;2.00;;;;;24.49;62.94;101980.22;5076478;28;45579;-82
2022/07/11 07:49:33;;;;;;;;;3.75;3.00;;;;;24.54;63.23;101989.09;5076277;27;45349;-83
2022/07/11 07:51:58;;;;;;;;;2.75;2.00;;;;;24.48;63.05;101971.41;5076500;27;45220;-82
2022/07/11 07:54:24;;;;;;;;;2.00;2.00;;;;;24.59;62.77;101992.66;5078738;27;45443;-81
2022/07/11 07:56:49;;;;;;;;;3.00;3.00;;;;;24.61;63.26;101992.69;5077862;28;45527;-82
2022/07/11 07:59:15;;;;;;;;;4.50;4.50;;;;;24.62;62.81;101992.66;5076071;27;45390;-84
2022/07/11 08:01:42;;;;;;;;;4.00;3.00;;;;;24.66;62.56;101991.81;5076231;28;45456;-82
2022/07/11 08:04:09;;;;;;;;;4.75;4.25;;;;;24.69;62.67;101993.63;5074791;28;45346;-82
2022/07/11 08:06:36;;;;;;;;;4.25;3.25;;;;;24.73;62.17;101995.38;5078343;27;46493;-83
2022/07/11 08:09:03;;;;;;;;;3.00;3.00;;;;;24.76;61.60;101995.41;5079453;27;45286;-82
2022/07/11 08:11:30;;;;;;;;;4.00;3.00;;;;;24.75;61.28;101991.00;5086321;27;45175;-82
2022/07/11 08:13:55;;;;;;;;;3.00;3.00;;;;;24.77;60.80;101993.66;5087999;28;45564;-82
2022/07/11 08:16:21;;;;;;;;;2.75;2.75;;;;;24.76;60.79;101979.53;5080812;27;45733;-81
2022/07/11 08:18:47;;;;;;;;;1.50;1.50;;;;;24.80;61.12;101983.06;5080470;27;45323;-82
2022/07/11 08:21:13;;;;;;;;;2.00;2.00;;;;;24.84;60.58;101979.56;5078397;28;45360;-82
2022/07/11 08:23:38;;;;;;;;;2.25;2.25;;;;;24.87;61.11;101988.41;5079941;27;45443;-83
2022/07/11 08:26:04;;;;;;;;;2.25;2.25;;;;;24.92;60.49;101979.59;5079134;28;45512;-84
2022/07/11 08:28:30;;;;;;;;;2.75;2.75;;;;;24.94;59.32;101977.84;5079306;27;45413;-83
2022/07/11 08:30:56;;;;;;;;;2.00;1.00;;;;;24.91;59.32;101972.53;5079556;27;45265;-82
2022/07/11 08:33:21;;;;;;;;;3.25;3.25;;;;;24.91;59.77;101954.84;5079617;27;45233;-82
2022/07/11 08:35:47;;;;;;;;;3.75;3.00;;;;;24.97;60.07;101951.34;5078794;28;46411;-82
2022/07/11 08:38:13;;;;;;;;;6.25;4.00;;;;;24.97;59.34;101948.69;5080919;27;45291;-81
2022/07/11 08:40:41;;;;;;;;;3.00;3.00;;;;;24.95;59.73;101942.50;5080157;28;45254;-81
2022/07/11 08:43:15;;;;;;;;;3.50;3.50;;;;;24.98;60.18;101948.72;5080026;28;45603;-82
2022/07/11 08:45:40;;;;;;;;;3.25;3.25;;;;;25.01;59.50;101943.41;5079041;27;46312;-82
2022/07/11 08:48:08;;;;;;;;;2.00;2.00;;;;;25.04;59.17;101937.25;5078692;28;45999;-81
2022/07/11 08:50:35;;;;;;;;;2.00;2.00;;;;;25.07;59.00;101942.53;5079089;27;45388;-81
2022/07/11 08:53:03;;;;;;;;;5.00;3.00;;;;;25.08;59.36;101948.72;5078753;27;45501;-82
2022/07/11 08:55:29;;;;;;;;;2.75;2.75;;;;;25.09;59.47;101945.19;5078741;27;45288;-81
2022/07/11 08:57:55;;;;;;;;;1.25;1.25;;;;;25.12;58.82;101946.09;5079046;27;45655;-81
2022/07/11 09:00:21;;;;;;;;;3.75;3.00;;;;;25.07;58.79;101936.34;5078675;27;45385;-81
2022/07/11 09:02:49;;;;;;;;;3.00;3.00;;;;;25.11;59.36;101936.38;5084677;27;45360;-81
2022/07/11 09:05:15;;;;;;;;;2.00;2.00;;;;;25.18;59.55;101945.22;5085443;27;45520;-81
2022/07/11 09:07:48;;;;;;;;;3.00;3.00;;;;;25.18;59.71;101942.56;5080164;27;45822;-81
2022/07/11 09:10:15;;;;;;;;;4.25;3.00;;;;;25.25;59.82;101943.47;5078689;27;45348;-81
2022/07/11 09:12:57;;;;;;;;;3.00;2.00;;;;;25.26;59.01;101934.63;5079068;28;45559;-82
2022/07/11 09:15:37;;;;;;;;;4.00;2.00;;;;;25.28;58.55;101936.41;5079098;27;45645;-82
2022/07/11 09:18:04;;;;;;;;;2.00;2.00;;;;;25.31;59.27;101930.22;5077617;28;45665;-82
2022/07/11 09:26:24;;;;;;;;;3.00;2.75;;;;;25.35;58.27;101927.56;5078437;28;45352;-81
2022/07/11 09:29:14;;;;;;;;;3.25;3.25;;;;;25.42;58.49;101927.63;5078071;27;45325;-82
2022/07/11 09:31:41;;;;;;;;;3.75;2.75;;;;;25.43;57.89;101924.97;5078388;27;45247;-82
2022/07/11 09:34:15;;;;;;;;;2.50;2.00;;;;;25.47;58.86;101925.84;5078236;27;45850;-82
2022/07/11 09:36:55;;;;;;;;;4.00;2.50;;;;;25.48;58.71;101924.97;5078383;27;46345;-82
2022/07/11 09:39:26;;;;;;;;;2.25;2.25;;;;;25.49;58.81;101921.44;5076878;28;45315;-82
2022/07/11 09:41:53;;;;;;;;;3.75;3.75;;;;;25.48;57.83;101917.00;5078574;27;45474;-81
2022/07/11 09:44:33;;;;;;;;;3.00;3.00;;;;;25.52;58.50;101921.44;5078280;27;45264;-82
2022/07/11 09:46:59;;;;;;;;;6.00;2.25;;;;;25.55;58.64;101915.25;5076199;28;46988;-81
2022/07/11 09:49:34;;;;;;;;;3.25;3.25;;;;;25.59;58.18;101927.63;5078249;27;45177;-81
2022/07/11 09:52:18;;;;;;;;;3.00;3.00;;;;;25.62;58.88;101925.84;5078058;28;45341;-81
2022/07/11 09:55:00;;;;;;;;;2.00;2.00;;;;;25.64;58.56;101929.41;5079078;27;45396;-81
2022/07/11 09:57:36;;;;;;;;;2.75;2.75;;;;;25.63;58.53;101914.38;5085393;27;46097;-81
2022/07/11 10:00:11;;;;;;;;;3.00;3.00;;;;;25.72;58.47;101920.53;5079911;27;45278;-81
2022/07/11 10:02:37;;;;;;;;;2.50;2.50;;;;;25.77;58.07;101916.09;5078511;28;45238;-81
2022/07/11 10:05:04;;;;;;;;;4.00;4.00;;;;;25.79;57.56;101923.19;5080126;28;45577;-81
2022/07/11 10:07:30;;;;;;;;;2.50;2.50;;;;;25.83;57.07;101923.16;5077934;27;46216;-82
2022/07/11 10:10:00;;;;;;;;;2.00;2.00;;;;;25.87;57.65;101922.28;5078218;27;45836;-82
2022/07/11 10:12:27;;;;;;;;;3.00;2.50;;;;;25.85;57.05;101908.13;5078108;27;45334;-81
2022/07/11 10:14:55;;;;;;;;;2.00;2.00;;;;;25.92;57.00;101921.41;5078281;27;45640;-81
2022/07/11 10:17:26;;;;;;;;;4.00;3.00;;;;;25.92;57.22;101913.44;5077502;27;46956;-81
2022/07/11 10:19:55;;;;;;;;;3.50;3.00;;;;;26.00;56.88;101917.84;5077950;27;45212;-82
2022/07/11 10:22:34;;;;;;;;;2.00;2.00;;;;;26.02;56.46;101921.38;5077618;28;45343;-82
2022/07/11 10:25:28;;;;;;;;;3.00;2.00;;;;;26.03;56.38;101924.03;5077525;27;45827;-81
2022/07/11 10:28:22;;;;;;;;;3.25;3.25;;;;;26.09;55.22;101925.78;5077500;28;46408;-82
2022/07/11 10:30:59;;;;;;;;;5.00;4.00;;;;;26.05;56.07;101908.97;5077209;27;45755;-82
2022/07/11 10:33:27;;;;;;;;;5.25;5.00;;;;;26.10;55.56;101925.81;5077489;27;45310;-82
2022/07/11 10:35:53;;;;;;;;;20.00;16.75;;;;;26.10;56.14;101923.16;5077897;27;45197;-83
2022/07/11 10:38:19;;;;;;;;;7.25;7.00;;;;;26.17;56.33;101933.75;5076862;27;45338;-82
2022/07/11 10:40:46;;;;;;;;;13.00;12.50;;;;;26.19;55.71;101932.00;5077115;28;45657;-82
2022/07/11 10:43:14;;;;;;;;;2.50;2.25;;;;;26.20;55.62;101928.44;5077169;27;45357;-82
2022/07/11 10:45:59;;;;;;;;;3.25;3.00;;;;;26.24;55.47;101928.44;5078301;27;45421;-81
2022/07/11 10:48:27;;;;;;;;;2.50;2.25;;;;;26.26;56.07;101924.00;5084147;27;46231;-81
2022/07/11 10:51:16;;;;;;;;;3.00;2.00;;;;;26.29;55.02;101917.81;5085727;28;45234;-82
2022/07/11 10:53:50;;;;;;;;;2.75;2.75;;;;;26.25;54.22;101910.72;5079845;27;45500;-81
2022/07/11 10:56:35;;;;;;;;;2.00;2.00;;;;;26.30;53.54;101913.38;5077183;27;45397;-82
2022/07/11 10:59:16;;;;;;;;;3.25;2.00;;;;;26.37;53.12;101918.66;5076918;28;45387;-83
2022/07/11 11:02:00;;;;;;;;;1.00;1.00;;;;;26.41;53.39;101911.56;5077411;27;45251;-82
2022/07/11 11:04:57;;;;;;;;;2.00;2.00;;;;;26.44;53.34;101921.31;5077327;28;45349;-82
2022/07/11 11:07:37;;;;;;;;;1.25;1.25;;;;;26.45;51.56;101913.31;5077765;27;45235;-82
2022/07/11 11:10:26;;;;;;;;;3.00;1.75;;;;;26.42;52.52;101898.28;5076874;27;45502;-82
2022/07/11 11:13:09;;;;;;;;;1.25;1.25;;;;;26.52;52.35;101908.88;5077585;28;45438;-82
2022/07/11 11:15:54;;;;;;;;;0.75;0.75;;;;;26.46;52.54;101895.63;5077101;27;45353;-82
2022/07/11 11:18:23;;;;;;;;;2.00;2.00;;;;;26.56;52.15;101911.50;5076921;27;45411;-82
2022/07/11 11:21:00;;;;;;;;;1.25;1.25;;;;;26.59;52.21;101892.00;5076474;27;45242;-82
2022/07/11 11:23:29;;;;;;;;;2.75;2.75;;;;;26.64;52.70;101895.53;5076631;27;45795;-81
2022/07/11 11:26:12;;;;;;;;;3.00;2.00;;;;;26.65;51.67;101899.97;5076887;27;45461;-82
2022/07/11 11:28:53;;;;;;;;;3.00;3.00;;;;;26.74;51.00;101899.00;5076710;27;45365;-81
2022/07/11 11:31:20;;;;;;;;;1.25;1.25;;;;;26.74;51.22;101891.03;5076277;27;46492;-82
2022/07/11 11:33:47;;;;;;;;;2.50;2.50;;;;;26.76;51.49;101885.75;5076482;27;45456;-82